Time;durP1;ratioP1;P1;durP2;ratioP2;P2;SDS_P1;SDS_P2;PMS_P1;PMS_P2;Temp;Humidity;BMP_temperature;BMP_pressure;BME280_temperature;BME280_humidity;BME280_pressure;Samples;Min_cycle;Max_cycle;Signal;HPM_P1;HPM_P2
2022/03/24 00:02:03;;;;;;;35.60;19.55;;;;;;;5.10;72.02;102866.31;5068741;28;20032;-72
2022/03/24 00:04:29;;;;;;;46.20;22.75;;;;;;;5.08;71.57;102861.13;5067212;28;20265;-72
2022/03/24 00:06:55;;;;;;;39.95;20.30;;;;;;;5.12;72.50;102877.63;5068535;28;20051;-72
2022/03/24 00:09:20;;;;;;;40.58;20.98;;;;;;;5.04;72.29;102873.72;5053974;28;20032;-72
2022/03/24 00:11:47;;;;;;;39.42;20.63;;;;;;;4.98;72.30;102873.34;5068608;28;20027;-72
2022/03/24 00:14:13;;;;;;;37.38;20.45;;;;;;;4.94;72.85;102866.56;5070429;28;20064;-72
2022/03/24 00:16:39;;;;;;;37.75;19.13;;;;;;;4.96;72.46;102873.44;5072274;28;20407;-72
2022/03/24 00:19:04;;;;;;;36.40;19.83;;;;;;;4.97;72.89;102868.97;5072053;28;20040;-72
2022/03/24 00:21:30;;;;;;;47.28;22.42;;;;;;;4.91;72.12;102864.16;5071904;28;20357;-72
2022/03/24 00:23:55;;;;;;;38.40;21.70;;;;;;;4.84;72.15;102864.56;5071933;28;20043;-71
2022/03/24 00:26:20;;;;;;;38.80;20.80;;;;;;;4.86;72.73;102858.34;5072061;28;20025;-72
2022/03/24 00:28:46;;;;;;;40.35;22.98;;;;;;;4.87;71.96;102854.72;5072195;28;20033;-72
2022/03/24 00:31:11;;;;;;;42.55;23.05;;;;;;;4.83;70.88;102860.25;5072202;28;20043;-72
2022/03/24 00:33:38;;;;;;;44.83;21.33;;;;;;;4.76;70.27;102855.50;5071404;28;20020;-72
2022/03/24 00:36:09;;;;;;;41.55;20.63;;;;;;;4.71;71.59;102855.81;5071855;28;20119;-72
2022/03/24 00:38:34;;;;;;;41.85;22.38;;;;;;;4.67;71.99;102851.72;5071997;28;20068;-72
2022/03/24 00:41:01;;;;;;;39.40;21.08;;;;;;;4.66;73.33;102850.00;5070633;28;20518;-72
2022/03/24 00:43:26;;;;;;;41.00;22.10;;;;;;;4.67;72.79;102851.72;5071516;28;20028;-72
2022/03/24 00:45:52;;;;;;;46.70;22.20;;;;;;;4.63;73.61;102850.22;5070332;28;20487;-72
2022/03/24 00:48:18;;;;;;;39.00;20.65;;;;;;;4.58;72.85;102860.28;5071769;28;20028;-72
2022/03/24 00:50:44;;;;;;;42.05;22.83;;;;;;;4.46;72.80;102858.50;5070284;28;20028;-72
2022/03/24 00:53:11;;;;;;;37.47;21.02;;;;;;;4.35;73.63;102854.81;5071557;28;20027;-72
2022/03/24 00:55:37;;;;;;;36.17;19.00;;;;;;;4.21;73.98;102854.06;5071385;28;20043;-72
2022/03/24 00:58:03;;;;;;;37.13;21.65;;;;;;;4.06;74.35;102850.69;5071524;28;20474;-72
2022/03/24 01:00:30;;;;;;;41.60;22.75;;;;;;;4.05;74.86;102847.19;5071491;28;20052;-72
2022/03/24 01:02:57;;;;;;;43.47;25.30;;;;;;;4.09;75.04;102847.84;5071141;28;20153;-72
2022/03/24 01:05:24;;;;;;;44.78;25.33;;;;;;;4.15;75.03;102847.41;5071356;28;20045;-72
2022/03/24 01:07:50;;;;;;;43.60;22.80;;;;;;;4.17;75.29;102840.25;5053338;28;20127;-74
2022/03/24 01:10:18;;;;;;;40.95;21.67;;;;;;;4.18;75.83;102837.47;5071275;28;20395;-72
2022/03/24 01:12:45;;;;;;;39.40;20.67;;;;;;;4.23;75.27;102842.44;5070946;28;20487;-71
2022/03/24 01:15:14;;;;;;;38.20;19.60;;;;;;;4.20;75.17;102842.66;5071199;28;20511;-71
2022/03/24 01:17:40;;;;;;;38.47;22.55;;;;;;;4.07;75.38;102828.63;5053553;28;20031;-72
2022/03/24 01:20:07;;;;;;;39.67;21.85;;;;;;;4.10;75.87;102834.53;5071328;28;20032;-71
2022/03/24 01:22:33;;;;;;;45.80;24.45;;;;;;;4.14;75.81;102846.59;5070743;28;20024;-72
2022/03/24 01:24:59;;;;;;;39.60;20.90;;;;;;;4.12;76.01;102831.78;5070453;28;20042;-71
2022/03/24 01:27:26;;;;;;;40.80;21.70;;;;;;;4.16;76.09;102834.09;5070970;28;20040;-71
2022/03/24 01:29:56;;;;;;;46.13;25.73;;;;;;;4.10;76.00;102834.53;5070653;28;20039;-71
2022/03/24 01:32:22;;;;;;;41.72;22.90;;;;;;;4.00;75.79;102822.06;5070906;28;20021;-72
2022/03/24 01:34:48;;;;;;;49.22;22.60;;;;;;;3.96;76.51;102826.72;5070865;28;20036;-72
2022/03/24 01:37:14;;;;;;;36.95;18.50;;;;;;;4.01;76.67;102826.38;5070659;28;20032;-72
2022/03/24 01:39:40;;;;;;;42.75;21.65;;;;;;;4.02;77.13;102825.44;5070740;28;20082;-72
2022/03/24 01:42:06;;;;;;;37.55;22.63;;;;;;;4.02;77.23;102825.44;5069010;28;20133;-72
2022/03/24 01:44:32;;;;;;;38.83;21.52;;;;;;;3.99;77.57;102826.50;5070385;28;20501;-72
2022/03/24 01:47:00;;;;;;;40.60;21.73;;;;;;;3.92;77.09;102818.13;5070657;28;20170;-72
2022/03/24 01:49:28;;;;;;;37.60;22.10;;;;;;;3.80;77.05;102803.16;5069205;28;20429;-71
2022/03/24 01:51:54;;;;;;;40.63;23.77;;;;;;;3.80;77.21;102812.84;5070484;28;20029;-71
2022/03/24 01:54:21;;;;;;;40.58;23.50;;;;;;;3.80;77.70;102810.22;5070640;28;20051;-71
2022/03/24 01:56:48;;;;;;;45.00;21.17;;;;;;;3.82;77.55;102805.69;5070232;28;20039;-71
2022/03/24 01:59:14;;;;;;;39.78;22.83;;;;;;;3.86;76.96;102813.28;5068805;28;20476;-72
2022/03/24 02:01:40;;;;;;;54.10;21.77;;;;;;;3.85;77.46;102811.63;5070286;28;20395;-71
2022/03/24 02:04:06;;;;;;;41.22;23.48;;;;;;;3.80;77.74;102805.81;5070134;28;20044;-72
2022/03/24 02:06:33;;;;;;;37.83;20.50;;;;;;;3.73;77.73;102802.72;5068777;28;20040;-71
2022/03/24 02:09:00;;;;;;;38.60;20.83;;;;;;;3.70;77.83;102802.94;5068715;28;20060;-71
2022/03/24 02:11:28;;;;;;;38.80;21.50;;;;;;;3.70;77.70;102813.47;5069934;28;20052;-71
2022/03/24 02:13:57;;;;;;;40.05;23.50;;;;;;;3.58;77.48;102801.09;5070180;28;20123;-72
2022/03/24 02:16:27;;;;;;;41.58;23.48;;;;;;;3.56;78.39;102795.06;5069849;28;20032;-72
2022/03/24 02:18:59;;;;;;;38.38;22.23;;;;;;;3.58;78.13;102795.00;5069998;28;20210;-72
2022/03/24 02:21:25;;;;;;;41.70;21.88;;;;;;;3.61;77.68;102807.97;5069929;28;20548;-71
2022/03/24 02:23:51;;;;;;;34.45;19.45;;;;;;;3.52;77.99;102793.59;5069842;28;20028;-71
2022/03/24 02:26:17;;;;;;;40.80;24.25;;;;;;;3.46;77.65;102794.03;5069573;28;20041;-71
2022/03/24 02:28:45;;;;;;;41.63;21.80;;;;;;;3.40;78.54;102799.69;5069057;28;20033;-72
2022/03/24 02:31:12;;;;;;;46.88;24.17;;;;;;;3.37;78.42;102786.72;5069673;28;20078;-71
2022/03/24 02:33:37;;;;;;;39.10;21.40;;;;;;;3.38;78.47;102796.31;5069368;28;20016;-71
2022/03/24 02:36:04;;;;;;;36.83;21.25;;;;;;;3.35;78.74;102797.34;5069155;28;20051;-71
2022/03/24 02:38:32;;;;;;;37.60;21.23;;;;;;;3.35;78.71;102797.34;5069669;28;20025;-71
2022/03/24 02:40:57;;;;;;;40.08;20.42;;;;;;;3.30;78.69;102804.72;5069706;28;20039;-71
2022/03/24 02:43:24;;;;;;;38.70;21.70;;;;;;;3.27;79.03;102797.00;5068315;28;20020;-71
2022/03/24 02:45:53;;;;;;;39.88;22.00;;;;;;;3.22;78.94;102799.97;5069616;28;20077;-71
2022/03/24 02:48:21;;;;;;;35.30;21.20;;;;;;;3.18;78.90;102790.56;5069594;28;20493;-71
2022/03/24 02:50:46;;;;;;;40.33;23.15;;;;;;;3.23;79.24;102792.91;5069504;28;20472;-71
2022/03/24 02:53:12;;;;;;;40.95;22.92;;;;;;;3.25;79.32;102793.66;5069439;28;20059;-72
2022/03/24 02:55:37;;;;;;;35.15;19.52;;;;;;;3.20;79.42;102779.94;5069370;28;20032;-71
2022/03/24 02:58:03;;;;;;;36.72;19.55;;;;;;;3.20;78.77;102804.50;5069460;28;20024;-71
2022/03/24 03:00:28;;;;;;;37.42;22.02;;;;;;;3.07;79.75;102809.72;5069134;28;20029;-71
2022/03/24 03:02:54;;;;;;;61.55;20.95;;;;;;;2.95;79.76;102796.47;5069228;28;20553;-71
2022/03/24 03:05:21;;;;;;;56.47;22.83;;;;;;;3.00;79.62;102802.31;5069376;28;20076;-71
2022/03/24 03:07:47;;;;;;;42.60;21.10;;;;;;;2.97;79.77;102808.63;5069387;28;20455;-71
2022/03/24 03:10:13;;;;;;;37.88;20.17;;;;;;;2.92;79.45;102801.94;5069426;28;20043;-71
2022/03/24 03:12:39;;;;;;;37.42;21.20;;;;;;;2.88;79.98;102803.06;5069272;28;20024;-71
2022/03/24 03:15:05;;;;;;;40.28;23.30;;;;;;;2.89;80.24;102796.88;5069483;28;20043;-71
2022/03/24 03:17:32;;;;;;;37.90;20.10;;;;;;;2.89;80.42;102792.44;5069215;28;20025;-71
2022/03/24 03:19:57;;;;;;;39.65;21.70;;;;;;;2.90;80.17;102799.41;5068865;28;20032;-71
2022/03/24 03:22:23;;;;;;;37.80;20.15;;;;;;;2.84;80.57;102799.81;5069183;28;20365;-71
2022/03/24 03:24:48;;;;;;;34.35;19.17;;;;;;;2.85;80.53;102810.22;5068865;28;20024;-71
2022/03/24 03:27:14;;;;;;;40.45;22.90;;;;;;;2.83;80.76;102800.75;5069040;28;20082;-71
2022/03/24 03:29:40;;;;;;;38.83;21.35;;;;;;;2.78;81.09;102805.47;5069225;28;20087;-71
2022/03/24 03:32:06;;;;;;;42.90;24.00;;;;;;;2.61;80.86;102780.19;5067691;28;20032;-71
2022/03/24 03:34:32;;;;;;;46.50;24.55;;;;;;;2.70;80.96;102810.34;5069099;28;20040;-71
2022/03/24 03:36:59;;;;;;;38.17;21.50;;;;;;;2.66;81.01;102801.81;5069313;28;20375;-71
2022/03/24 03:39:25;;;;;;;36.30;22.48;;;;;;;2.67;81.48;102806.13;5067621;28;20035;-71
2022/03/24 03:41:52;;;;;;;39.08;20.23;;;;;;;2.64;81.47;102794.00;5069005;28;20031;-71
2022/03/24 03:44:17;;;;;;;39.53;22.35;;;;;;;2.63;81.08;102809.91;5069004;28;20035;-71
2022/03/24 03:46:44;;;;;;;38.92;22.27;;;;;;;2.56;81.29;102803.31;5067657;28;20036;-71
2022/03/24 03:49:09;;;;;;;37.97;24.15;;;;;;;2.56;81.60;102809.44;5071434;28;20028;-71
2022/03/24 03:51:36;;;;;;;42.67;24.48;;;;;;;2.56;81.25;102808.59;5071522;28;20534;-71
2022/03/24 03:54:01;;;;;;;39.75;22.38;;;;;;;2.53;81.00;102799.09;5072543;28;20480;-71
2022/03/24 03:56:28;;;;;;;41.88;23.52;;;;;;;2.55;81.07;102805.13;5072906;28;20031;-73
2022/03/24 03:58:53;;;;;;;39.92;22.10;;;;;;;2.53;81.25;102800.88;5071395;28;20044;-72
2022/03/24 04:01:19;;;;;;;35.95;21.30;;;;;;;2.46;81.37;102795.16;5054393;28;20029;-72
2022/03/24 04:03:44;;;;;;;40.33;24.52;;;;;;;2.47;81.39;102807.38;5071050;28;20375;-72
2022/03/24 04:06:12;;;;;;;39.85;25.38;;;;;;;2.46;81.68;102808.31;5072625;28;20044;-72
2022/03/24 04:08:39;;;;;;;35.67;22.25;;;;;;;2.44;81.70;102804.94;5072556;28;20089;-72
2022/03/24 04:11:08;;;;;;;34.67;19.73;;;;;;;2.42;81.87;102812.94;5072561;28;20025;-72
2022/03/24 04:13:38;;;;;;;42.53;23.05;;;;;;;2.41;82.22;102810.38;5071964;28;20048;-72
2022/03/24 04:16:04;;;;;;;46.25;24.10;;;;;;;2.25;81.62;102791.22;5072457;28;20082;-72
2022/03/24 04:18:29;;;;;;;45.08;25.17;;;;;;;2.31;82.38;102814.56;5070596;28;20044;-72
2022/03/24 04:20:56;;;;;;;44.83;25.40;;;;;;;2.31;82.35;102822.44;5072346;28;20024;-72
2022/03/24 04:23:22;;;;;;;44.25;22.33;;;;;;;2.27;82.15;102816.50;5072273;28;20051;-72
2022/03/24 04:25:47;;;;;;;38.53;23.05;;;;;;;2.23;82.52;102817.66;5072167;28;20472;-72
2022/03/24 04:28:14;;;;;;;38.88;20.63;;;;;;;2.19;82.68;102811.72;5072164;28;20093;-72
2022/03/24 04:30:39;;;;;;;41.72;23.15;;;;;;;2.13;82.57;102808.63;5071895;28;20028;-72
2022/03/24 04:33:04;;;;;;;41.67;22.63;;;;;;;2.16;82.70;102814.53;5071944;28;20491;-72
2022/03/24 04:35:31;;;;;;;41.63;25.98;;;;;;;2.13;82.74;102812.09;5071958;28;20063;-72
2022/03/24 04:37:57;;;;;;;37.42;20.05;;;;;;;2.12;82.58;102810.41;5072173;28;20090;-72
2022/03/24 04:40:22;;;;;;;41.63;22.00;;;;;;;2.10;82.45;102808.81;5071545;28;20036;-71
2022/03/24 04:42:49;;;;;;;39.33;21.88;;;;;;;2.00;83.18;102808.50;5071707;28;20032;-72
2022/03/24 04:45:17;;;;;;;41.22;24.42;;;;;;;2.04;82.88;102811.78;5071807;28;20380;-72
2022/03/24 04:47:43;;;;;;;40.55;22.50;;;;;;;2.04;83.11;102814.41;5071858;28;20036;-72
2022/03/24 04:50:10;;;;;;;42.20;21.08;;;;;;;1.97;83.06;102814.81;5071815;28;20108;-72
2022/03/24 04:52:35;;;;;;;44.85;25.20;;;;;;;1.95;83.35;102818.47;5070301;28;20494;-72
2022/03/24 04:55:01;;;;;;;41.28;21.95;;;;;;;1.96;83.67;102820.13;5071719;28;20028;-72
2022/03/24 04:57:27;;;;;;;44.45;22.38;;;;;;;1.96;83.52;102817.50;5071730;28;20062;-72
2022/03/24 04:59:52;;;;;;;45.92;24.67;;;;;;;1.95;83.60;102816.66;5071221;28;20161;-72
2022/03/24 05:02:18;;;;;;;42.40;22.92;;;;;;;1.90;83.79;102810.00;5071364;28;20067;-72
2022/03/24 05:04:44;;;;;;;41.15;22.60;;;;;;;1.90;83.57;102818.72;5070978;28;20052;-72
2022/03/24 05:07:09;;;;;;;40.65;22.20;;;;;;;1.86;83.54;102822.50;5071397;28;20135;-72
2022/03/24 05:09:36;;;;;;;38.67;23.60;;;;;;;1.81;84.17;102826.31;5071304;28;20031;-72
2022/03/24 05:12:01;;;;;;;39.45;22.13;;;;;;;1.73;84.52;102818.91;5071337;28;20379;-72
2022/03/24 05:14:27;;;;;;;52.30;26.38;;;;;;;1.73;84.48;102826.78;5071133;28;20036;-72
2022/03/24 05:16:52;;;;;;;39.08;21.60;;;;;;;1.62;84.55;102800.25;5070048;28;20064;-72
2022/03/24 05:19:18;;;;;;;48.63;23.85;;;;;;;1.75;84.53;102825.72;5069811;28;20111;-72
2022/03/24 05:21:44;;;;;;;36.88;23.38;;;;;;;1.76;84.76;102823.97;5071182;28;20507;-72
2022/03/24 05:24:09;;;;;;;37.22;22.45;;;;;;;1.77;84.50;102816.91;5071268;28;20032;-72
2022/03/24 05:26:35;;;;;;;40.80;22.42;;;;;;;1.72;84.34;102819.81;5071155;28;20578;-72
2022/03/24 05:29:00;;;;;;;38.03;22.10;;;;;;;1.69;84.57;102827.91;5071193;28;20059;-72
2022/03/24 05:31:26;;;;;;;43.38;24.13;;;;;;;1.68;84.61;102823.59;5070774;28;20085;-72
2022/03/24 05:33:51;;;;;;;37.80;22.95;;;;;;;1.66;84.62;102828.91;5070724;28;20090;-72
2022/03/24 05:36:16;;;;;;;40.75;22.80;;;;;;;1.66;84.75;102830.72;5070728;28;20399;-72
2022/03/24 05:38:42;;;;;;;38.25;19.98;;;;;;;1.62;84.88;102819.50;5070834;28;20032;-72
2022/03/24 05:41:10;;;;;;;40.78;23.08;;;;;;;1.61;85.12;102823.06;5070783;28;20079;-72
2022/03/24 05:43:36;;;;;;;41.90;23.55;;;;;;;1.56;84.53;102814.59;5070443;28;20372;-72
2022/03/24 05:46:01;;;;;;;45.42;24.85;;;;;;;1.62;84.78;102830.00;5070319;28;20032;-72
2022/03/24 05:48:27;;;;;;;39.35;23.73;;;;;;;1.64;85.03;102828.16;5070622;28;20029;-72
2022/03/24 05:50:52;;;;;;;42.13;23.75;;;;;;;1.66;85.04;102822.81;5070465;28;20036;-72
2022/03/24 05:53:17;;;;;;;44.67;23.15;;;;;;;1.66;85.20;102813.13;5035658;28;20083;-72
2022/03/24 05:55:43;;;;;;;42.63;21.58;;;;;;;1.72;84.53;102833.81;5070149;28;20040;-72
2022/03/24 05:58:09;;;;;;;39.78;20.65;;;;;;;1.74;84.88;102836.38;5070465;28;20066;-72
2022/03/24 06:00:37;;;;;;;41.83;25.17;;;;;;;1.71;85.08;102826.03;5070231;28;20025;-72
2022/03/24 06:03:03;;;;;;;38.05;22.60;;;;;;;1.83;84.99;102835.81;5070162;28;20063;-72
2022/03/24 06:05:28;;;;;;;44.83;24.20;;;;;;;1.89;84.88;102830.19;5069878;28;20036;-72
2022/03/24 06:07:55;;;;;;;41.03;23.70;;;;;;;1.95;85.04;102831.63;5070172;28;20040;-72
2022/03/24 06:10:20;;;;;;;52.13;27.13;;;;;;;2.00;85.22;102834.81;5069526;28;20479;-72
2022/03/24 06:12:47;;;;;;;41.70;23.33;;;;;;;2.03;84.94;102832.00;5069555;28;20028;-72
2022/03/24 06:15:13;;;;;;;38.35;23.88;;;;;;;2.19;84.82;102840.66;5068283;28;20040;-73
2022/03/24 06:17:39;;;;;;;43.35;24.88;;;;;;;2.44;84.13;102833.91;5070068;28;20046;-72
2022/03/24 06:20:06;;;;;;;48.33;26.15;;;;;;;2.67;83.19;102837.75;5069972;28;20024;-72
2022/03/24 06:22:41;;;;;;;35.13;21.17;;;;;;;2.75;82.94;102832.88;5069453;28;20020;-72
2022/03/24 06:25:08;;;;;;;41.88;22.17;;;;;;;2.83;83.03;102838.50;5069841;28;20059;-72
2022/03/24 06:27:34;;;;;;;42.70;23.75;;;;;;;2.95;82.98;102846.56;5069680;28;20472;-72
2022/03/24 06:29:59;;;;;;;42.00;23.65;;;;;;;3.07;83.56;102838.72;5068485;28;20040;-72
2022/03/24 06:32:24;;;;;;;51.13;27.17;;;;;;;3.28;82.35;102839.13;5069735;28;20033;-72
2022/03/24 06:34:51;;;;;;;41.38;25.75;;;;;;;3.32;82.17;102823.09;5069677;28;20047;-72
2022/03/24 06:37:16;;;;;;;52.60;26.17;;;;;;;3.51;81.14;102840.25;5069667;28;20492;-72
2022/03/24 06:39:41;;;;;;;48.47;26.63;;;;;;;3.85;80.91;102845.06;5069584;28;20110;-72
2022/03/24 06:42:07;;;;;;;40.97;24.05;;;;;;;4.10;80.01;102842.44;5069567;28;20062;-72
2022/03/24 06:44:32;;;;;;;44.08;24.45;;;;;;;4.23;79.51;102838.97;5069382;28;20081;-72
2022/03/24 06:46:58;;;;;;;47.50;24.15;;;;;;;4.27;79.64;102843.94;5069877;28;20036;-72
2022/03/24 06:49:23;;;;;;;44.13;26.20;;;;;;;4.35;80.16;102848.69;5069031;28;20029;-72
2022/03/24 06:51:49;;;;;;;47.58;25.08;;;;;;;4.39;80.11;102845.72;5069397;28;20039;-72
2022/03/24 06:54:15;;;;;;;49.30;24.13;;;;;;;4.46;80.42;102846.16;5069578;28;20047;-72
2022/03/24 06:56:40;;;;;;;45.70;26.00;;;;;;;4.46;80.66;102847.94;5069279;28;20028;-72
2022/03/24 06:59:05;;;;;;;38.97;23.17;;;;;;;4.53;80.94;102844.78;5068008;28;20025;-72
2022/03/24 07:01:31;;;;;;;42.22;25.05;;;;;;;4.64;80.13;102848.44;5067972;28;20036;-73
2022/03/24 07:03:56;;;;;;;49.35;25.35;;;;;;;4.72;79.74;102840.81;5069131;28;20047;-73
2022/03/24 07:06:21;;;;;;;44.55;24.75;;;;;;;4.77;78.95;102841.34;5068948;28;20123;-72
2022/03/24 07:08:47;;;;;;;49.17;26.70;;;;;;;4.96;78.39;102849.63;5068947;28;20498;-72
2022/03/24 07:11:13;;;;;;;46.17;25.77;;;;;;;5.09;78.19;102846.13;5068128;28;20103;-73
2022/03/24 07:13:38;;;;;;;54.28;26.77;;;;;;;5.22;78.54;102857.50;5069152;28;20040;-73
2022/03/24 07:16:04;;;;;;;52.92;29.80;;;;;;;5.34;78.36;102853.09;5067934;28;20051;-72
2022/03/24 07:18:29;;;;;;;48.88;28.88;;;;;;;5.43;79.11;102855.06;5067801;28;20040;-73
2022/03/24 07:20:54;;;;;;;55.88;31.38;;;;;;;5.53;78.07;102856.09;5069123;28;20035;-72
2022/03/24 07:23:20;;;;;;;50.03;27.88;;;;;;;5.55;78.00;102842.72;5069170;28;20032;-72
2022/03/24 07:25:45;;;;;;;51.50;27.05;;;;;;;5.65;77.76;102841.06;5069050;28;20107;-73
2022/03/24 07:28:11;;;;;;;47.58;28.52;;;;;;;5.83;78.10;102857.38;5069151;28;20101;-73
2022/03/24 07:30:37;;;;;;;55.75;27.73;;;;;;;5.96;77.92;102850.22;5069220;28;20029;-72
2022/03/24 07:33:03;;;;;;;51.50;29.10;;;;;;;6.08;77.86;102857.25;5069173;28;20033;-73
2022/03/24 07:35:30;;;;;;;60.03;34.85;;;;;;;6.24;77.83;102851.59;5068736;28;20086;-72
2022/03/24 07:37:56;;;;;;;55.47;31.52;;;;;;;6.40;77.24;102853.06;5068959;28;20028;-72
2022/03/24 07:40:22;;;;;;;52.55;32.78;;;;;;;6.63;77.01;102857.41;5068949;28;20024;-72
2022/03/24 07:42:53;;;;;;;49.95;29.33;;;;;;;6.83;75.47;102852.31;5050730;28;20033;-72
2022/03/24 07:45:21;;;;;;;51.33;30.87;;;;;;;6.92;73.83;102860.38;5067388;28;20025;-72
2022/03/24 07:48:09;;;;;;;43.72;27.20;;;;;;;7.02;74.04;102861.34;5050940;28;20471;-73
2022/03/24 07:50:36;;;;;;;53.72;28.80;;;;;;;7.03;73.06;102848.91;5068852;28;20036;-72
2022/03/24 07:53:17;;;;;;;48.78;31.27;;;;;;;7.22;73.13;102858.88;5068582;28;20020;-72
2022/03/24 07:55:44;;;;;;;53.20;29.50;;;;;;;7.42;73.44;102849.28;5068520;28;20032;-72
2022/03/24 07:58:16;;;;;;;47.20;27.92;;;;;;;7.90;72.56;102860.25;5068441;28;20060;-72
2022/03/24 08:00:43;;;;;;;;;;;;;;;8.12;73.17;102864.63;5067929;28;20112;-72
2022/03/24 08:03:14;;;;;;;47.50;28.75;;;;;;;8.16;72.44;102854.56;5066882;28;19979;-72
2022/03/24 08:05:41;;;;;;;52.22;29.10;;;;;;;8.30;71.21;102867.50;5068513;28;20033;-73
2022/03/24 08:08:09;;;;;;;54.65;28.70;;;;;;;8.38;70.09;102866.00;5068594;28;20476;-72
2022/03/24 08:10:36;;;;;;;46.28;28.83;;;;;;;8.56;71.32;102872.41;5068538;28;20038;-72
2022/03/24 08:13:01;;;;;;;49.80;31.05;;;;;;;8.78;69.49;102868.72;5051245;28;20040;-72
2022/03/24 08:15:27;;;;;;;48.40;29.60;;;;;;;8.86;69.06;102873.38;5068674;28;20681;-72
2022/03/24 08:17:52;;;;;;;51.80;32.17;;;;;;;8.95;69.29;102869.88;5068589;28;20419;-72
2022/03/24 08:20:17;;;;;;;52.15;30.33;;;;;;;9.10;68.54;102873.84;5068855;28;20021;-72
2022/03/24 08:22:43;;;;;;;51.17;32.75;;;;;;;9.28;69.58;102881.19;5068413;28;20028;-73
2022/03/24 08:25:09;;;;;;;43.40;29.48;;;;;;;9.43;68.02;102859.31;5068463;28;20093;-72
2022/03/24 08:27:36;;;;;;;49.95;28.65;;;;;;;9.62;68.19;102878.97;5068432;28;20403;-72
2022/03/24 08:30:03;;;;;;;45.70;27.90;;;;;;;9.65;66.01;102873.34;5068492;28;20131;-72
2022/03/24 08:32:29;;;;;;;45.72;26.95;;;;;;;9.85;63.84;102872.34;5068360;28;20021;-72
2022/03/24 08:34:54;;;;;;;48.88;29.25;;;;;;;10.13;63.37;102883.09;5070886;28;20040;-72
2022/03/24 08:37:19;;;;;;;44.40;28.52;;;;;;;10.16;60.96;102866.81;5072013;28;20041;-72
2022/03/24 08:39:45;;;;;;;41.10;25.90;;;;;;;10.25;61.66;102879.28;5070730;28;20963;-72
2022/03/24 08:42:10;;;;;;;40.90;23.92;;;;;;;10.31;60.12;102885.91;5071950;28;21078;-72
2022/03/24 08:44:35;;;;;;;36.63;21.65;;;;;;;10.35;59.37;102881.97;5071456;28;20490;-72
2022/03/24 08:47:01;;;;;;;43.20;24.70;;;;;;;10.43;59.68;102879.41;5071666;28;20395;-72
2022/03/24 08:49:27;;;;;;;82.35;27.40;;;;;;;10.53;58.73;102879.34;5071767;28;20051;-72
2022/03/24 08:51:52;;;;;;;41.28;23.27;;;;;;;10.65;59.08;102880.88;5071681;28;20024;-72
2022/03/24 08:54:17;;;;;;;36.63;21.35;;;;;;;10.79;59.89;102881.38;5071643;28;20033;-72
2022/03/24 08:56:43;;;;;;;39.90;22.85;;;;;;;10.86;58.66;102877.13;5071977;28;20036;-72
2022/03/24 08:59:09;;;;;;;47.78;27.02;;;;;;;10.94;56.82;102877.22;5070382;28;20043;-72
2022/03/24 09:01:34;;;;;;;44.05;25.35;;;;;;;11.12;57.26;102877.25;5071653;28;20032;-72
2022/03/24 09:04:00;;;;;;;37.80;23.42;;;;;;;11.27;55.27;102875.75;5071138;28;20141;-73
2022/03/24 09:06:25;;;;;;;43.53;24.88;;;;;;;11.43;55.42;102883.09;5071506;28;20040;-72
2022/03/24 09:08:52;;;;;;;38.05;24.33;;;;;;;11.56;53.94;102880.03;5071460;28;20139;-72
2022/03/24 09:11:18;;;;;;;40.05;23.35;;;;;;;11.69;53.01;102879.66;5071092;28;20040;-72
2022/03/24 09:13:43;;;;;;;43.78;24.10;;;;;;;11.84;51.85;102884.28;5070966;28;20408;-73
2022/03/24 09:16:10;;;;;;;35.40;22.55;;;;;;;12.03;53.30;102883.28;5069884;28;20040;-73
2022/03/24 09:18:36;;;;;;;39.50;23.33;;;;;;;12.18;50.24;102880.91;5071086;28;20036;-73
2022/03/24 09:21:01;;;;;;;36.60;22.63;;;;;;;12.32;47.98;102884.00;5071266;28;20023;-72
2022/03/24 09:23:28;;;;;;;36.95;21.95;;;;;;;12.49;49.41;102891.94;5071108;28;20028;-73
2022/03/24 09:25:54;;;;;;;37.30;23.73;;;;;;;12.60;46.54;102884.63;5070837;28;20033;-73
2022/03/24 09:28:21;;;;;;;34.03;19.80;;;;;;;12.78;44.87;102895.25;5070592;28;20032;-73
2022/03/24 09:30:47;;;;;;;31.80;20.90;;;;;;;12.91;46.00;102888.44;5070932;28;20107;-73
2022/03/24 09:33:13;;;;;;;31.92;19.92;;;;;;;13.03;46.18;102891.66;5070424;28;20217;-73
2022/03/24 09:35:38;;;;;;;33.22;21.40;;;;;;;13.15;45.64;102894.88;5070887;28;20051;-73
2022/03/24 09:38:05;;;;;;;36.03;21.35;;;;;;;13.29;44.80;102885.41;5070910;28;20063;-72
2022/03/24 09:40:30;;;;;;;34.60;18.98;;;;;;;13.40;44.41;102884.25;5069531;28;20107;-73
2022/03/24 09:42:57;;;;;;;34.08;21.65;;;;;;;13.54;42.02;102889.78;5070703;28;20043;-73
2022/03/24 09:45:25;;;;;;;34.78;19.63;;;;;;;13.65;42.23;102894.00;5069483;28;20384;-73
2022/03/24 09:47:50;;;;;;;31.30;19.83;;;;;;;13.77;41.39;102889.97;5070482;28;20024;-73
2022/03/24 09:50:17;;;;;;;36.03;22.45;;;;;;;13.86;39.67;102896.19;5070681;28;20028;-73
2022/03/24 09:52:43;;;;;;;33.83;20.92;;;;;;;13.96;41.47;102882.56;5070599;28;20033;-73
2022/03/24 09:55:09;;;;;;;34.50;21.52;;;;;;;14.08;42.08;102889.28;5070457;28;20040;-73
2022/03/24 09:57:35;;;;;;;31.45;20.48;;;;;;;14.14;40.57;102877.84;5070350;28;20024;-73
2022/03/24 10:00:01;;;;;;;32.75;20.67;;;;;;;14.25;40.03;102882.88;5070244;28;20114;-73
2022/03/24 10:02:28;;;;;;;32.83;19.48;;;;;;;14.35;39.19;102881.84;5068887;28;20032;-73
2022/03/24 10:05:01;;;;;;;31.92;18.83;;;;;;;14.45;38.88;102886.00;5070241;28;20091;-73
2022/03/24 10:07:33;;;;;;;34.30;19.48;;;;;;;14.54;37.53;102880.63;5070097;28;20040;-72
2022/03/24 10:10:00;;;;;;;32.58;19.42;;;;;;;14.62;38.81;102889.53;5070168;28;20383;-73
2022/03/24 10:12:28;;;;;;;37.80;19.55;;;;;;;14.72;39.09;102886.63;5069919;28;20024;-73
2022/03/24 10:15:03;;;;;;;31.02;20.65;;;;;;;14.78;38.97;102877.88;5069937;28;20032;-73
2022/03/24 10:17:30;;;;;;;32.78;18.40;;;;;;;14.84;37.59;102871.78;5069532;28;20051;-73
2022/03/24 10:20:00;;;;;;;29.83;18.25;;;;;;;14.99;38.02;102871.91;5069856;28;20024;-73
2022/03/24 10:22:26;;;;;;;28.73;18.58;;;;;;;15.12;36.14;102874.00;5069866;28;20012;-73
2022/03/24 10:24:52;;;;;;;24.70;14.77;;;;;;;15.24;31.12;102863.69;5068589;28;20044;-73
2022/03/24 10:27:26;;;;;;;25.65;14.60;;;;;;;15.35;30.41;102871.31;5069810;28;20071;-73
2022/03/24 10:29:56;;;;;;;25.10;15.70;;;;;;;15.36;28.90;102861.44;5069864;28;20035;-73
2022/03/24 10:32:30;;;;;;;25.48;16.85;;;;;;;15.46;30.06;102867.41;5069245;28;20024;-73
2022/03/24 10:35:08;;;;;;;27.90;16.48;;;;;;;15.52;32.01;102864.00;5069590;28;20035;-73
2022/03/24 10:37:34;;;;;;;26.83;15.18;;;;;;;15.66;30.00;102870.44;5069671;28;20547;-73
2022/03/24 10:40:09;;;;;;;25.63;15.63;;;;;;;15.73;30.70;102866.88;5069498;28;20139;-73
2022/03/24 10:42:41;;;;;;;22.75;14.02;;;;;;;15.78;30.66;102869.84;5069383;28;20099;-73
2022/03/24 10:45:06;;;;;;;33.60;16.88;;;;;;;15.79;29.61;102865.28;5069359;28;20089;-73
2022/03/24 10:47:56;;;;;;;23.10;14.15;;;;;;;15.84;30.46;102862.91;5067895;28;20032;-74
2022/03/24 10:50:23;;;;;;;26.83;17.27;;;;;;;15.89;28.49;102865.88;5069567;28;20061;-74
2022/03/24 10:52:51;;;;;;;24.45;15.35;;;;;;;15.84;28.64;102860.22;5069202;28;20392;-74
2022/03/24 10:55:26;;;;;;;23.88;14.60;;;;;;;15.90;29.70;102853.25;5069254;28;20039;-74
2022/03/24 10:57:51;;;;;;;24.70;15.13;;;;;;;15.90;27.29;102859.50;5068942;28;20028;-74
2022/03/24 11:00:17;;;;;;;24.85;16.02;;;;;;;15.95;28.02;102872.38;5051520;28;20039;-74
2022/03/24 11:02:44;;;;;;;23.67;14.50;;;;;;;15.99;27.94;102865.63;5069161;28;20867;-74
2022/03/24 11:05:12;;;;;;;24.40;16.10;;;;;;;16.03;25.80;102856.16;5069122;28;20101;-74
2022/03/24 11:07:38;;;;;;;23.13;14.13;;;;;;;16.05;28.07;102859.50;5069393;28;20050;-74
2022/03/24 11:10:14;;;;;;;23.73;13.00;;;;;;;16.15;28.84;102868.16;5068862;28;20032;-74
2022/03/24 11:12:42;;;;;;;23.90;14.50;;;;;;;16.25;28.08;102857.13;5069075;28;20036;-74